createdAt,value
2019-02-25T00:00:52.992Z,59.00
2019-02-25T00:03:22.173Z,59.50
2019-02-25T00:06:03.414Z,60.00
2019-02-25T00:08:33.402Z,63.50
2019-02-25T00:11:02.422Z,56.00
2019-02-25T00:13:31.579Z,60.00
2019-02-25T00:16:00.653Z,62.00
2019-02-25T00:18:29.852Z,59.50
2019-02-25T00:20:58.916Z,61.00
2019-02-25T00:23:28.020Z,57.50
2019-02-25T00:25:57.179Z,54.50
2019-02-25T00:28:26.418Z,55.50
2019-02-25T00:30:56.533Z,56.50
2019-02-25T00:33:25.696Z,57.00
2019-02-25T00:35:54.813Z,61.00
2019-02-25T00:38:27.296Z,57.50
2019-02-25T00:40:56.368Z,59.50
2019-02-25T00:43:25.534Z,61.50
2019-02-25T00:45:54.803Z,59.00
2019-02-25T00:48:23.877Z,58.50
2019-02-25T00:50:52.991Z,57.50
2019-02-25T00:53:22.150Z,52.00
2019-02-25T00:55:51.245Z,59.00
2019-02-25T00:58:20.300Z,57.00
2019-02-25T01:00:49.404Z,55.00
2019-02-25T01:03:18.433Z,52.50
2019-02-25T01:05:47.664Z,53.00
2019-02-25T01:08:16.838Z,58.50
2019-02-25T01:10:46.036Z,52.00
2019-02-25T01:13:15.640Z,60.50
2019-02-25T01:15:44.718Z,59.50
2019-02-25T01:18:15.255Z,57.50
2019-02-25T01:20:44.412Z,53.00
2019-02-25T01:23:15.708Z,55.00
2019-02-25T01:25:44.782Z,54.00
2019-02-25T01:28:14.194Z,45.50
2019-02-25T01:30:43.307Z,51.00
2019-02-25T01:33:12.371Z,51.00
2019-02-25T01:35:41.546Z,56.00
2019-02-25T01:38:10.777Z,50.00
2019-02-25T01:40:40.979Z,54.00
2019-02-25T01:43:10.000Z,51.00
2019-02-25T01:45:39.046Z,48.00
2019-02-25T01:48:08.069Z,47.50
2019-02-25T01:50:37.249Z,48.50
2019-02-25T01:53:06.467Z,49.50
2019-02-25T01:55:35.608Z,45.00
2019-02-25T01:58:05.717Z,46.00
2019-02-25T02:00:36.897Z,56.50
2019-02-25T02:03:06.116Z,50.00
2019-02-25T02:05:35.254Z,53.50
2019-02-25T02:08:04.809Z,47.00
2019-02-25T02:10:34.034Z,48.00
2019-02-25T02:13:03.201Z,56.00
2019-02-25T02:15:32.559Z,48.00
2019-02-25T02:18:02.102Z,43.00
2019-02-25T02:20:34.865Z,52.50
2019-02-25T02:23:04.261Z,50.50
2019-02-25T02:25:36.253Z,46.50
2019-02-25T02:28:06.639Z,58.50
2019-02-25T02:30:35.847Z,53.50
2019-02-25T02:33:05.109Z,51.00
2019-02-25T02:35:35.930Z,48.00
2019-02-25T02:38:13.357Z,47.00
2019-02-25T02:40:42.526Z,56.00
2019-02-25T02:43:13.132Z,50.00
2019-02-25T02:46:20.221Z,48.00
2019-02-25T02:48:56.136Z,49.50
2019-02-25T02:51:27.560Z,48.50
2019-02-25T02:53:59.011Z,53.00
2019-02-25T02:56:31.156Z,48.00
2019-02-25T02:59:00.268Z,49.00
2019-02-25T03:01:29.490Z,44.00
2019-02-25T03:03:58.562Z,43.50
2019-02-25T03:06:27.594Z,45.50
2019-02-25T03:08:56.642Z,41.50
2019-02-25T03:11:25.721Z,42.50
2019-02-25T03:13:54.833Z,36.50
2019-02-25T03:16:23.860Z,38.00
2019-02-25T03:18:52.905Z,35.00
2019-02-25T03:21:21.919Z,38.00
2019-02-25T03:23:51.275Z,38.50
2019-02-25T03:26:22.263Z,36.50
2019-02-25T03:28:51.502Z,38.50
2019-02-25T03:31:20.630Z,36.50
2019-02-25T03:33:53.058Z,34.00
2019-02-25T03:36:22.285Z,34.00
2019-02-25T03:38:52.856Z,40.50
2019-02-25T03:41:21.884Z,37.50
2019-02-25T03:43:54.838Z,37.00
2019-02-25T03:46:23.890Z,35.00
2019-02-25T03:48:54.201Z,38.00
2019-02-25T03:51:23.264Z,38.50
2019-02-25T03:53:53.671Z,41.50
2019-02-25T03:56:25.075Z,41.50
2019-02-25T03:58:54.222Z,35.50
2019-02-25T04:01:23.451Z,36.00
2019-02-25T04:03:52.635Z,38.50
2019-02-25T04:06:23.473Z,43.00
2019-02-25T04:08:53.783Z,39.50
2019-02-25T04:11:22.982Z,47.00
2019-02-25T04:13:52.051Z,42.00
2019-02-25T04:16:21.241Z,47.50
2019-02-25T04:18:50.290Z,46.00
2019-02-25T04:21:19.543Z,47.00
2019-02-25T04:23:48.635Z,45.50
2019-02-25T04:26:17.646Z,46.00
2019-02-25T04:28:46.723Z,46.00
2019-02-25T04:31:16.138Z,45.50
2019-02-25T04:33:45.221Z,42.50
2019-02-25T04:36:14.662Z,50.00
2019-02-25T04:38:44.012Z,42.00
2019-02-25T04:41:14.503Z,52.00
2019-02-25T04:43:43.877Z,45.50
2019-02-25T04:46:16.026Z,44.50
2019-02-25T04:48:44.017Z,42.50
2019-02-25T04:51:14.267Z,43.00
2019-02-25T04:53:45.364Z,44.00
2019-02-25T04:56:14.405Z,51.00
2019-02-25T04:58:43.518Z,48.00
2019-02-25T05:01:13.080Z,42.00
2019-02-25T05:03:42.089Z,41.00
2019-02-25T05:06:14.518Z,49.50
2019-02-25T05:08:43.877Z,48.00
2019-02-25T05:11:16.627Z,46.00
2019-02-25T05:13:46.586Z,45.00
2019-02-25T05:16:22.811Z,46.00
2019-02-25T05:19:14.521Z,44.50
2019-02-25T05:21:42.214Z,39.50
2019-02-25T05:24:26.345Z,49.00
2019-02-25T05:26:55.614Z,43.00
2019-02-25T05:29:24.751Z,39.00
2019-02-25T05:31:54.084Z,43.50
2019-02-25T05:34:23.503Z,33.50
2019-02-25T05:36:52.579Z,44.50
2019-02-25T05:39:30.688Z,37.00
2019-02-25T05:41:59.744Z,39.00
2019-02-25T05:44:28.774Z,40.00
2019-02-25T05:46:59.927Z,41.00
2019-02-25T05:49:31.737Z,34.00
2019-02-25T05:52:00.738Z,37.50
2019-02-25T05:54:30.057Z,33.50
2019-02-25T05:57:15.318Z,41.00
2019-02-25T05:59:45.189Z,47.50
2019-02-25T06:02:14.588Z,50.50
2019-02-25T06:04:55.562Z,51.00
2019-02-25T06:07:22.166Z,46.00
2019-02-25T06:09:54.721Z,51.50
2019-02-25T06:12:26.063Z,53.50
2019-02-25T06:14:55.123Z,46.00
2019-02-25T06:17:24.217Z,43.50
2019-02-25T06:19:53.248Z,42.50
2019-02-25T06:22:22.327Z,34.50
2019-02-25T06:24:51.874Z,33.50
2019-02-25T06:27:30.310Z,32.00
2019-02-25T06:29:51.689Z,35.50
2019-02-25T06:32:20.695Z,37.00
2019-02-25T06:34:49.722Z,36.00
2019-02-25T06:37:31.291Z,44.00
2019-02-25T06:40:03.022Z,41.50
2019-02-25T06:42:36.074Z,43.50
2019-02-25T06:45:11.589Z,45.50
2019-02-25T06:47:40.675Z,40.50
2019-02-25T06:50:10.770Z,42.00
2019-02-25T06:52:39.877Z,43.50
2019-02-25T06:55:13.293Z,47.50
2019-02-25T06:57:54.428Z,42.50
2019-02-25T07:00:23.794Z,48.00
2019-02-25T07:02:53.103Z,43.50
2019-02-25T07:05:43.008Z,46.50
2019-02-25T07:08:19.004Z,49.50
2019-02-25T07:10:58.991Z,43.50
2019-02-25T07:13:41.692Z,44.50
2019-02-25T07:16:29.795Z,47.50
2019-02-25T07:19:20.605Z,48.00
2019-02-25T07:22:05.895Z,45.00
2019-02-25T07:24:52.592Z,53.50
2019-02-25T07:27:42.033Z,44.50
2019-02-25T07:30:32.898Z,37.50
2019-02-25T07:33:26.293Z,45.00
2019-02-25T07:36:14.787Z,45.50
2019-02-25T07:38:58.676Z,51.50
2019-02-25T07:41:45.666Z,54.00
2019-02-25T07:44:48.689Z,44.50
2019-02-25T07:47:43.546Z,50.50
2019-02-25T07:50:31.699Z,50.50
2019-02-25T07:53:08.879Z,49.50
2019-02-25T07:55:50.124Z,49.00
2019-02-25T07:58:24.317Z,45.00
2019-02-25T08:01:04.994Z,48.00
2019-02-25T08:03:52.086Z,46.50
2019-02-25T08:06:28.890Z,53.00
2019-02-25T08:09:15.813Z,59.00
2019-02-25T08:12:13.009Z,54.50
2019-02-25T08:15:03.780Z,50.00
2019-02-25T08:18:05.115Z,53.00
2019-02-25T08:20:59.969Z,59.50
2019-02-25T08:23:49.697Z,57.50
2019-02-25T08:26:36.459Z,53.00
2019-02-25T08:29:23.170Z,54.00
2019-02-25T08:32:12.139Z,54.00
2019-02-25T08:35:06.092Z,60.50
2019-02-25T08:38:22.132Z,48.50
2019-02-25T08:41:03.139Z,48.50
2019-02-25T08:43:52.491Z,54.50
2019-02-25T08:46:40.486Z,55.00
2019-02-25T08:49:13.415Z,55.50
2019-02-25T08:51:42.590Z,52.00
2019-02-25T08:54:13.115Z,53.50
2019-02-25T08:56:42.310Z,53.00
2019-02-25T08:59:11.411Z,52.00
2019-02-25T09:01:40.584Z,48.50
2019-02-25T09:04:09.743Z,59.50
2019-02-25T09:06:38.840Z,55.50
2019-02-25T09:09:09.518Z,48.50
2019-02-25T09:11:38.690Z,56.50
2019-02-25T09:14:09.085Z,52.25
2019-02-25T09:16:38.145Z,44.25
2019-02-25T09:19:07.403Z,42.25
2019-02-25T09:21:39.257Z,47.00
2019-02-25T09:24:08.464Z,45.00
2019-02-25T09:26:37.843Z,38.25
2019-02-25T09:29:07.081Z,33.50
2019-02-25T09:31:36.199Z,28.00
2019-02-25T09:34:08.135Z,27.25
2019-02-25T09:36:38.563Z,23.25
2019-02-25T09:39:17.334Z,19.00
2019-02-25T09:41:46.613Z,17.75
2019-02-25T09:44:21.580Z,20.00
2019-02-25T09:46:50.748Z,22.00
2019-02-25T09:49:23.471Z,20.00
2019-02-25T09:51:52.589Z,21.25
2019-02-25T09:54:23.689Z,23.00
2019-02-25T09:56:52.874Z,20.25
2019-02-25T09:59:21.976Z,21.00
2019-02-25T10:01:51.191Z,21.75
2019-02-25T10:04:20.549Z,19.50
2019-02-25T10:06:49.658Z,25.00
2019-02-25T10:09:18.744Z,20.75
2019-02-25T10:11:48.775Z,26.00
2019-02-25T10:14:17.922Z,22.75
2019-02-25T10:16:46.945Z,27.25
2019-02-25T10:19:16.042Z,28.00
2019-02-25T10:21:45.108Z,30.25
2019-02-25T10:24:14.260Z,25.00
2019-02-25T10:26:43.342Z,30.00
2019-02-25T10:29:12.873Z,27.50
2019-02-25T10:31:43.700Z,31.75
2019-02-25T10:34:13.038Z,29.00
2019-02-25T10:36:46.008Z,28.50
2019-02-25T10:39:16.210Z,32.00
2019-02-25T10:41:45.866Z,30.00
2019-02-25T10:44:17.419Z,27.00
2019-02-25T10:46:49.609Z,25.50
2019-02-25T10:49:22.229Z,30.25
2019-02-25T10:51:51.540Z,25.75
2019-02-25T10:54:21.246Z,27.00
2019-02-25T10:56:55.842Z,25.50
2019-02-25T10:59:25.667Z,24.75
2019-02-25T11:01:54.833Z,28.25
2019-02-25T11:04:26.092Z,33.50
2019-02-25T11:06:58.894Z,31.50
2019-02-25T11:09:50.358Z,32.25
2019-02-25T11:12:21.472Z,38.25
2019-02-25T11:14:50.663Z,33.75
2019-02-25T11:17:20.837Z,32.50
2019-02-25T11:19:50.810Z,35.00
2019-02-25T11:22:21.705Z,36.75
2019-02-25T11:24:51.860Z,37.00
2019-02-25T11:27:23.057Z,35.75
2019-02-25T11:29:52.241Z,30.75
2019-02-25T11:32:24.415Z,35.00
2019-02-25T11:34:56.584Z,34.25
2019-02-25T11:37:28.305Z,33.50
2019-02-25T11:39:59.321Z,33.25
2019-02-25T11:42:29.386Z,38.00
2019-02-25T11:44:59.859Z,33.25
2019-02-25T11:47:31.056Z,33.00
2019-02-25T11:50:00.348Z,33.25
2019-02-25T11:52:29.456Z,32.00
2019-02-25T11:54:58.551Z,33.50
2019-02-25T11:57:27.755Z,36.75
2019-02-25T11:59:56.910Z,28.00
2019-02-25T12:02:26.218Z,33.50
2019-02-25T12:04:55.384Z,29.50
2019-02-25T12:07:24.482Z,25.75
2019-02-25T12:09:53.552Z,31.25
2019-02-25T12:12:25.910Z,25.25
2019-02-25T12:14:55.042Z,27.25
2019-02-25T12:17:24.081Z,23.75
2019-02-25T12:19:53.256Z,23.50
2019-02-25T12:22:22.410Z,23.75
2019-02-25T12:24:51.489Z,23.00
2019-02-25T12:27:22.204Z,24.25
2019-02-25T12:29:51.273Z,20.25
2019-02-25T12:32:20.455Z,25.00
2019-02-25T12:34:49.479Z,28.25
2019-02-25T12:37:18.580Z,26.25
2019-02-25T12:39:47.616Z,26.00
2019-02-25T12:42:16.802Z,28.25
2019-02-25T12:44:45.841Z,24.00
2019-02-25T12:47:15.171Z,23.75
2019-02-25T12:49:44.233Z,19.00
2019-02-25T12:52:14.752Z,24.50
2019-02-25T12:54:44.108Z,28.50
2019-02-25T12:57:13.134Z,24.25
2019-02-25T12:59:43.411Z,27.00
2019-02-25T13:02:12.411Z,22.25
2019-02-25T13:04:41.525Z,25.25
2019-02-25T13:07:10.672Z,28.25
2019-02-25T13:09:40.015Z,27.00
2019-02-25T13:12:09.237Z,25.25
2019-02-25T13:14:38.250Z,25.50
2019-02-25T13:17:07.292Z,29.25
2019-02-25T13:19:36.376Z,26.50
2019-02-25T13:22:05.678Z,28.00
2019-02-25T13:24:35.246Z,25.75
2019-02-25T13:27:06.416Z,28.50
2019-02-25T13:29:36.471Z,27.00
2019-02-25T13:32:05.716Z,27.25
2019-02-25T13:34:34.751Z,26.25
2019-02-25T13:37:04.295Z,23.25
2019-02-25T13:39:34.527Z,23.00
2019-02-25T13:42:03.628Z,23.75
2019-02-25T13:44:33.043Z,25.00
2019-02-25T13:47:02.233Z,23.75
2019-02-25T13:49:31.287Z,21.75
2019-02-25T13:52:00.465Z,21.75
2019-02-25T13:54:29.849Z,22.75
2019-02-25T13:56:58.984Z,22.25
2019-02-25T13:59:28.403Z,24.00
2019-02-25T14:01:57.567Z,23.25
2019-02-25T14:04:26.807Z,22.25
2019-02-25T14:06:55.865Z,24.00
2019-02-25T14:09:25.077Z,25.25
2019-02-25T14:11:54.760Z,22.50
2019-02-25T14:14:23.851Z,24.00
2019-02-25T14:16:52.951Z,23.50
2019-02-25T14:19:23.032Z,22.00
2019-02-25T14:21:53.190Z,19.50
2019-02-25T14:24:22.368Z,20.75
2019-02-25T14:26:51.658Z,20.00
2019-02-25T14:29:21.599Z,20.00
2019-02-25T14:31:51.717Z,21.25
2019-02-25T14:34:20.876Z,19.50
2019-02-25T14:36:52.482Z,25.25
2019-02-25T14:39:27.627Z,23.00
2019-02-25T14:41:56.944Z,27.25
2019-02-25T14:44:30.094Z,24.50
2019-02-25T14:46:58.703Z,22.50
2019-02-25T14:49:28.222Z,24.25
2019-02-25T14:51:58.807Z,27.00
2019-02-25T14:54:29.343Z,24.25
2019-02-25T14:56:58.840Z,26.50
2019-02-25T14:59:27.966Z,25.50
2019-02-25T15:01:59.220Z,24.25
2019-02-25T15:04:29.332Z,23.25
2019-02-25T15:06:58.408Z,23.00
2019-02-25T15:09:28.337Z,23.00
2019-02-25T15:11:59.733Z,22.25
2019-02-25T15:14:29.825Z,23.75
2019-02-25T15:16:59.025Z,22.50
2019-02-25T15:19:34.499Z,18.50
2019-02-25T15:22:04.897Z,19.75
2019-02-25T15:24:34.006Z,19.75
2019-02-25T15:27:04.505Z,18.75
2019-02-25T15:29:34.445Z,18.25
2019-02-25T15:32:09.065Z,16.00
2019-02-25T15:34:38.099Z,17.00
2019-02-25T15:37:09.351Z,16.25
2019-02-25T15:39:42.043Z,18.75
2019-02-25T15:42:12.959Z,17.50
2019-02-25T15:44:44.095Z,20.25
2019-02-25T15:47:14.769Z,17.75
2019-02-25T15:49:43.836Z,20.00
2019-02-25T15:52:18.387Z,19.25
2019-02-25T15:54:46.377Z,18.50
2019-02-25T15:57:15.597Z,20.00
2019-02-25T15:59:47.185Z,23.00
2019-02-25T16:02:16.504Z,20.75
2019-02-25T16:04:47.614Z,20.75
2019-02-25T16:07:16.805Z,22.50
2019-02-25T16:09:46.185Z,20.50
2019-02-25T16:12:16.157Z,20.00
2019-02-25T16:14:47.060Z,19.25
2019-02-25T16:17:16.878Z,18.50
2019-02-25T16:19:47.819Z,18.25
2019-02-25T16:22:16.980Z,18.25
2019-02-25T16:24:47.536Z,19.00
2019-02-25T16:27:18.551Z,18.75
2019-02-25T16:29:48.900Z,16.50
2019-02-25T16:32:19.267Z,17.75
2019-02-25T16:34:48.810Z,16.50
2019-02-25T16:37:19.821Z,18.00
2019-02-25T16:39:48.795Z,16.25
2019-02-25T16:42:20.118Z,20.50
2019-02-25T16:44:49.339Z,17.00
2019-02-25T16:47:31.903Z,20.00
2019-02-25T16:49:50.350Z,21.50
2019-02-25T16:52:22.217Z,22.25
2019-02-25T16:54:51.153Z,19.25
2019-02-25T16:57:21.260Z,29.00
2019-02-25T16:59:53.540Z,32.75
2019-02-25T17:02:23.631Z,40.50
2019-02-25T17:04:52.781Z,21.75
2019-02-25T17:07:22.716Z,28.00
2019-02-25T17:09:51.790Z,23.50
2019-02-25T17:12:21.569Z,21.00
2019-02-25T17:14:53.368Z,22.25
2019-02-25T17:17:24.613Z,22.50
2019-02-25T17:19:54.055Z,23.50
2019-02-25T17:22:23.438Z,23.00
2019-02-25T17:24:54.247Z,23.00
2019-02-25T17:27:23.851Z,23.75
2019-02-25T17:29:55.548Z,26.00
2019-02-25T17:32:25.863Z,24.50
2019-02-25T17:34:56.535Z,29.75
2019-02-25T17:37:26.723Z,26.25
2019-02-25T17:39:58.449Z,25.50
2019-02-25T17:42:27.409Z,27.75
2019-02-25T17:44:57.743Z,30.25
2019-02-25T17:47:30.574Z,27.75
2019-02-25T17:50:03.562Z,28.25
2019-02-25T17:52:50.486Z,28.25
2019-02-25T17:55:21.919Z,30.00
2019-02-25T17:57:52.074Z,29.25
2019-02-25T18:00:45.608Z,29.00
2019-02-25T18:03:17.195Z,26.75
2019-02-25T18:05:46.097Z,30.00
2019-02-25T18:08:16.608Z,28.00
2019-02-25T18:10:46.044Z,27.50
2019-02-25T18:13:16.767Z,27.50
2019-02-25T18:15:47.680Z,26.75
2019-02-25T18:18:19.622Z,25.00
2019-02-25T18:20:48.067Z,31.75
2019-02-25T18:23:17.206Z,29.00
2019-02-25T18:25:46.561Z,28.75
2019-02-25T18:28:17.527Z,31.75
2019-02-25T18:30:46.937Z,35.50
2019-02-25T18:33:17.406Z,34.75
2019-02-25T18:35:47.540Z,33.75
2019-02-25T18:38:29.554Z,33.75
2019-02-25T18:41:00.383Z,31.75
2019-02-25T18:43:30.533Z,30.25
2019-02-25T18:46:02.285Z,33.50
2019-02-25T18:48:32.415Z,26.00
2019-02-25T18:51:01.805Z,26.25
2019-02-25T18:53:32.628Z,25.75
2019-02-25T18:56:02.122Z,35.25
2019-02-25T18:58:35.447Z,58.00
2019-02-25T19:01:06.927Z,36.25
2019-02-25T19:03:37.122Z,35.25
2019-02-25T19:06:07.676Z,27.00
2019-02-25T19:08:36.941Z,32.50
2019-02-25T19:11:08.541Z,32.25
2019-02-25T19:13:38.168Z,34.75
2019-02-25T19:16:08.015Z,43.25
2019-02-25T19:18:40.798Z,41.50
2019-02-25T19:21:10.967Z,50.50
2019-02-25T19:23:41.842Z,45.75
2019-02-25T19:26:12.937Z,44.50
2019-02-25T19:28:45.931Z,40.75
2019-02-25T19:31:17.061Z,44.50
2019-02-25T19:33:46.192Z,41.00
2019-02-25T19:36:16.557Z,41.75
2019-02-25T19:38:48.033Z,42.00
2019-02-25T19:41:17.789Z,35.75
2019-02-25T19:43:48.528Z,37.00
2019-02-25T19:46:17.859Z,37.50
2019-02-25T19:48:47.970Z,36.75
2019-02-25T19:51:18.953Z,33.00
2019-02-25T19:53:50.292Z,32.50
2019-02-25T19:56:19.503Z,33.50
2019-02-25T19:58:48.750Z,32.25
2019-02-25T20:01:17.891Z,34.25
2019-02-25T20:03:47.729Z,29.00
2019-02-25T20:06:19.147Z,30.25
2019-02-25T20:08:48.765Z,33.75
2019-02-25T20:11:20.591Z,27.50
2019-02-25T20:13:49.755Z,32.50
2019-02-25T20:16:20.490Z,24.50
2019-02-25T20:18:50.038Z,27.50
2019-02-25T20:21:20.066Z,27.00
2019-02-25T20:23:51.812Z,26.50
2019-02-25T20:26:22.341Z,28.25
2019-02-25T20:28:52.053Z,28.50
2019-02-25T20:31:21.321Z,29.25
2019-02-25T20:33:52.510Z,29.25
2019-02-25T20:36:30.543Z,31.25
2019-02-25T20:38:59.546Z,37.00
2019-02-25T20:41:29.353Z,31.00
2019-02-25T20:44:01.070Z,33.50
2019-02-25T20:46:31.294Z,40.00
2019-02-25T20:49:02.181Z,42.00
2019-02-25T20:51:33.636Z,40.00
2019-02-25T20:54:02.999Z,42.25
2019-02-25T20:56:33.285Z,46.25
2019-02-25T20:59:06.157Z,39.75
2019-02-25T21:01:39.543Z,41.00
2019-02-25T21:04:08.792Z,40.00
2019-02-25T21:06:39.708Z,40.50
2019-02-25T21:09:11.188Z,42.00
2019-02-25T21:11:42.252Z,43.50
2019-02-25T21:14:11.433Z,40.50
2019-02-25T21:16:40.560Z,39.00
2019-02-25T21:19:10.829Z,41.00
2019-02-25T21:21:40.762Z,44.50
2019-02-25T21:24:13.593Z,53.00
2019-02-25T21:26:42.764Z,49.25
2019-02-25T21:29:13.547Z,55.50
2019-02-25T21:31:45.275Z,46.75
2019-02-25T21:34:17.729Z,45.00
2019-02-25T21:36:54.640Z,45.25
2019-02-25T21:39:24.019Z,51.50
2019-02-25T21:41:53.223Z,44.50
2019-02-25T21:44:24.249Z,43.75
2019-02-25T21:46:56.265Z,51.00
2019-02-25T21:49:29.218Z,43.25
2019-02-25T21:51:57.666Z,48.00
2019-02-25T21:54:29.161Z,50.50
2019-02-25T21:57:01.041Z,43.75
2019-02-25T21:59:32.377Z,43.75
2019-02-25T22:02:03.743Z,43.00
2019-02-25T22:04:33.172Z,47.50
2019-02-25T22:07:02.651Z,46.25
2019-02-25T22:09:37.782Z,44.00
2019-02-25T22:12:02.817Z,51.25
2019-02-25T22:14:32.752Z,44.25
2019-02-25T22:17:02.009Z,43.50
2019-02-25T22:19:32.498Z,44.75
2019-02-25T22:22:04.816Z,39.00
2019-02-25T22:24:36.143Z,43.25
2019-02-25T22:27:07.878Z,41.75
2019-02-25T22:29:38.546Z,44.00
2019-02-25T22:32:14.125Z,45.25
2019-02-25T22:34:43.155Z,49.25
2019-02-25T22:37:16.411Z,43.75
2019-02-25T22:39:43.904Z,38.25
2019-02-25T22:42:16.388Z,47.25
2019-02-25T22:44:47.472Z,46.75
2019-02-25T22:47:18.270Z,49.00
2019-02-25T22:49:48.517Z,48.25
2019-02-25T22:52:21.892Z,50.50
2019-02-25T22:54:50.018Z,54.00
2019-02-25T22:57:20.841Z,60.00
2019-02-25T22:59:51.093Z,52.00
2019-02-25T23:02:20.535Z,61.50
2019-02-25T23:04:56.171Z,55.50
2019-02-25T23:07:25.064Z,60.00
2019-02-25T23:09:54.469Z,60.00
2019-02-25T23:12:24.868Z,53.50
2019-02-25T23:14:56.042Z,53.00
2019-02-25T23:17:33.044Z,51.00
2019-02-25T23:20:02.678Z,52.50
2019-02-25T23:22:32.408Z,53.50
2019-02-25T23:25:02.593Z,50.50
2019-02-25T23:27:32.319Z,55.00
2019-02-25T23:30:02.454Z,53.50
2019-02-25T23:32:31.576Z,51.50
2019-02-25T23:35:00.600Z,58.00
2019-02-25T23:37:29.633Z,60.50
2019-02-25T23:40:02.217Z,57.50
2019-02-25T23:42:33.006Z,61.50
2019-02-25T23:45:00.412Z,56.00
2019-02-25T23:47:31.650Z,54.50
2019-02-25T23:50:01.156Z,59.50
2019-02-25T23:52:33.660Z,60.50
2019-02-25T23:55:01.849Z,58.50
2019-02-25T23:57:32.630Z,60.50
